Harvington, United Kingdom
Current Conditions -  °F | °C
As of 2:50 PM on Thursday 23 Oct 2014 (Local Time) from EGBJ Reporting Station
Broken Clouds Broken Clouds  
Wind Chill: 63°   Ceiling: 1400
Heat Index: 63°   Visibility: 6mi
Dew Point: 55°   Wind: 13mph
Humidity: 77%   Direction: 190°S
Pressure: 30"   Gusts: NA
Location:  52.13°N, 1.92°W
Report Text: EGBJ 231350Z 19011KT 9999 FEW012 BKN014 17/13 Q1016
Loading
Personal Weather Stations






























Interactive Weather Map
Tropical Storm Tracking
New forecast layout! Learn more

10-Day Weather Forecast

Advertisements
Track Severe Weather on mobile